Littlerock, California
Current Conditions -  °F | °C
As of 7:53 AM on Tuesday 21 Oct 2014 (Local Time) from KPMD Reporting Station
Clear Clear  
Wind Chill: 53°   Ceiling: Unl
Heat Index: 53°   Visibility: 10mi
Dew Point: 44°   Wind: 5mph
Humidity: 71%   Direction: 180°S
Pressure: 30"   Gusts: NA
Location:  34.52°N, 117.99°W
Report Text: KPMD 211453Z 18004KT 10SM CLR 12/07 A3000 RMK AO2 SLP144 T01170067 53007
Loading
Personal Weather Stations






























Interactive Weather Map
Tropical Storm Tracking
New forecast layout! Learn more

10-Day Weather Forecast

Advertisements
Track Severe Weather on mobile